Date,TemperatureHighF,TemperatureAvgF,TemperatureLowF,DewpointHighF,DewpointAvgF,DewpointLowF,HumidityHigh,HumidityAvg,HumidityLow,PressureMaxIn,PressureMinIn,WindSpeedMaxMPH,WindSpeedAvgMPH,GustSpeedMaxMPH,PrecipitationSumIn
2013-7-1,72.8,62.6,47.1,54.4,48.0,43.8,92,62,38,30.16,30.02,20,5,20,0.00
2013-7-2,72.3,59.6,42.3,53.0,45.1,38.2,97,64,33,30.17,30.07,15,3,15,0.00
2013-7-3,80.1,65.5,53.4,57.2,51.8,47.0,88,64,38,30.10,30.00,13,3,13,0.00
2013-7-4,78.3,67.0,59.3,64.4,60.3,56.0,96,80,58,30.05,29.98,15,3,15,0.00
2013-7-5,86.3,72.3,57.5,66.0,60.4,55.7,95,69,42,30.03,29.94,17,3,17,0.00
2013-7-6,86.0,75.2,63.0,63.8,59.7,53.4,84,60,38,29.98,29.91,20,4,22,0.00
2013-7-7,82.8,70.4,57.5,68.1,63.5,55.4,96,80,58,29.94,29.87,12,2,13,0.00
2013-7-8,72.8,67.2,64.5,69.7,65.6,62.7,97,95,87,29.95,29.89,15,3,16,0.56
2013-7-9,78.3,70.7,64.9,70.4,67.3,64.3,98,90,74,29.96,29.68,13,2,13,0.03
2013-7-10,70.7,67.4,63.1,69.3,61.6,55.6,97,82,64,29.91,29.61,23,7,24,0.02
2013-7-11,76.0,63.8,50.9,58.3,54.2,49.6,97,73,47,30.08,29.91,13,2,14,0.00
2013-7-12,79.3,65.2,47.6,60.3,54.0,46.2,98,71,41,30.17,30.07,11,2,12,0.00
2013-7-13,83.5,71.8,59.4,63.4,58.5,54.9,88,65,44,30.16,30.07,17,3,18,0.00
2013-7-14,84.8,72.5,56.6,66.2,61.7,54.6,95,71,49,30.22,30.16,14,3,15,0.00
2013-7-15,88.3,75.7,62.1,69.2,64.8,59.7,95,72,48,30.26,30.19,12,2,13,0.00
2013-7-16,91.0,78.0,62.7,73.3,67.9,61.2,97,74,46,30.23,30.13,20,3,20,0.00
2013-7-17,92.3,80.9,70.6,73.4,70.9,66.9,91,73,48,30.16,30.05,22,4,22,0.00
2013-7-18,86.3,77.2,71.3,76.6,71.8,68.4,96,84,66,30.06,29.71,28,4,37,0.97
2013-7-19,82.8,75.1,60.3,73.4,68.3,57.5,96,80,68,29.72,29.56,30,6,31,0.42
2013-7-20,69.5,63.3,53.5,61.2,52.6,44.8,98,71,43,30.00,29.69,18,4,19,0.01
2013-7-21,74.0,60.3,43.1,59.7,52.5,41.5,97,77,57,30.03,29.92,14,3,15,0.00
2013-7-22,84.3,72.2,60.1,68.7,62.6,56.3,90,73,52,29.92,29.59,18,4,18,0.00
2013-7-23,76.0,62.2,56.3,66.3,53.4,45.6,94,73,58,29.92,29.57,28,8,28,0.14
2013-7-24,70.4,58.7,42.5,54.3,49.2,40.9,97,73,51,30.05,29.92,14,2,14,0.00
2013-7-25,76.8,63.3,47.0,59.3,53.4,45.4,97,73,48,30.05,29.95,17,3,17,0.00
2013-7-26,75.0,63.1,57.7,66.2,59.6,54.8,96,89,70,29.98,29.81,18,3,20,1.01
2013-7-27,62.3,58.1,54.4,57.8,54.7,52.6,97,89,76,29.83,29.75,12,3,12,0.14
2013-7-28,63.7,57.8,51.5,56.7,52.6,49.4,95,83,65,29.86,29.70,19,4,22,0.01
2013-7-29,70.3,59.4,52.9,57.8,54.1,51.1,97,84,53,30.14,29.86,15,3,17,0.02
2013-7-30,73.8,61.9,49.7,61.7,55.7,48.0,98,82,53,30.19,30.08,14,2,14,0.00
2013-7-31,76.2,65.0,56.9,64.5,59.6,54.7,96,84,65,30.08,29.83,19,3,19,0.36